Atkinson, Nebraska
Current Conditions -  °F | °C
As of 6:15 AM on Monday 20 Oct 2014 (Local Time) from KONL Reporting Station
Clear Clear  
Wind Chill: 42°   Ceiling: Unl
Heat Index: 42°   Visibility: 10mi
Dew Point: 37°   Wind: 3mph
Humidity: 84%   Direction: 310°NW
Pressure: 30.08"   Gusts: NA
Location:  42.53°N, 98.98°W
Report Text: KONL 201115Z AUTO 31003KT 10SM CLR 06/03 A3008 RMK AO2 T00550030
Loading
Personal Weather Stations






























Interactive Weather Map
Tropical Storm Tracking
New forecast layout! Learn more

10-Day Weather Forecast

Advertisements
Track Severe Weather on mobile